sensor_id;sensor_type;location;lat;lon;timestamp;temperature;humidity
69464;DHT22;56665;41.106;16.688;2023-08-12T00:00:45;24.31;60.03
69464;DHT22;56665;41.106;16.688;2023-08-12T00:03:49;24.35;58.90
69464;DHT22;56665;41.106;16.688;2023-08-12T00:06:53;24.36;58.48
69464;DHT22;56665;41.106;16.688;2023-08-12T00:09:56;24.35;58.30
69464;DHT22;56665;41.106;16.688;2023-08-12T00:13:00;24.36;57.13
69464;DHT22;56665;41.106;16.688;2023-08-12T00:16:04;24.32;57.38
69464;DHT22;56665;41.106;16.688;2023-08-12T00:19:08;24.31;56.66
69464;DHT22;56665;41.106;16.688;2023-08-12T00:22:11;24.33;56.96
69464;DHT22;56665;41.106;16.688;2023-08-12T00:25:16;24.33;57.07
69464;DHT22;56665;41.106;16.688;2023-08-12T00:28:20;24.35;56.26
69464;DHT22;56665;41.106;16.688;2023-08-12T00:31:24;24.29;55.69
69464;DHT22;56665;41.106;16.688;2023-08-12T00:34:28;24.28;55.91
69464;DHT22;56665;41.106;16.688;2023-08-12T00:37:31;24.28;56.08
69464;DHT22;56665;41.106;16.688;2023-08-12T00:40:37;24.26;56.27
69464;DHT22;56665;41.106;16.688;2023-08-12T00:43:40;24.31;56.48
69464;DHT22;56665;41.106;16.688;2023-08-12T00:46:44;24.31;57.01
69464;DHT22;56665;41.106;16.688;2023-08-12T00:49:48;24.35;57.25
69464;DHT22;56665;41.106;16.688;2023-08-12T00:52:52;24.35;57.78
69464;DHT22;56665;41.106;16.688;2023-08-12T00:55:56;24.38;57.96
69464;DHT22;56665;41.106;16.688;2023-08-12T00:59:01;24.36;59.07
69464;DHT22;56665;41.106;16.688;2023-08-12T01:02:07;24.35;58.81
69464;DHT22;56665;41.106;16.688;2023-08-12T01:05:11;24.33;58.65
69464;DHT22;56665;41.106;16.688;2023-08-12T01:08:15;24.35;59.10
69464;DHT22;56665;41.106;16.688;2023-08-12T01:14:45;24.26;58.97
69464;DHT22;56665;41.106;16.688;2023-08-12T01:17:50;24.26;59.49
69464;DHT22;56665;41.106;16.688;2023-08-12T01:20:58;24.23;59.53
69464;DHT22;56665;41.106;16.688;2023-08-12T01:24:02;24.21;59.49
69464;DHT22;56665;41.106;16.688;2023-08-12T01:27:08;24.12;59.53
69464;DHT22;56665;41.106;16.688;2023-08-12T01:30:13;24.06;59.73
69464;DHT22;56665;41.106;16.688;2023-08-12T01:33:22;24.04;59.99
69464;DHT22;56665;41.106;16.688;2023-08-12T01:36:31;24.05;59.97
69464;DHT22;56665;41.106;16.688;2023-08-12T01:39:38;24.02;60.44
69464;DHT22;56665;41.106;16.688;2023-08-12T01:42:43;24.01;60.61
69464;DHT22;56665;41.106;16.688;2023-08-12T01:45:47;24.00;61.37
69464;DHT22;56665;41.106;16.688;2023-08-12T01:48:50;24.01;61.67
69464;DHT22;56665;41.106;16.688;2023-08-12T01:51:54;24.01;61.78
69464;DHT22;56665;41.106;16.688;2023-08-12T01:55:01;23.98;62.28
69464;DHT22;56665;41.106;16.688;2023-08-12T01:58:05;24.08;62.59
69464;DHT22;56665;41.106;16.688;2023-08-12T02:01:09;24.12;63.01
69464;DHT22;56665;41.106;16.688;2023-08-12T02:04:13;24.12;63.27
69464;DHT22;56665;41.106;16.688;2023-08-12T02:07:17;24.09;63.53
69464;DHT22;56665;41.106;16.688;2023-08-12T02:10:21;24.11;63.68
69464;DHT22;56665;41.106;16.688;2023-08-12T02:13:24;24.09;63.95
69464;DHT22;56665;41.106;16.688;2023-08-12T02:16:28;24.06;64.22
69464;DHT22;56665;41.106;16.688;2023-08-12T02:19:34;24.02;64.48
69464;DHT22;56665;41.106;16.688;2023-08-12T02:22:38;24.05;64.37
69464;DHT22;56665;41.106;16.688;2023-08-12T02:25:41;24.06;64.32
69464;DHT22;56665;41.106;16.688;2023-08-12T02:28:45;24.05;64.36
69464;DHT22;56665;41.106;16.688;2023-08-12T02:31:49;24.02;64.45
69464;DHT22;56665;41.106;16.688;2023-08-12T02:34:53;23.98;64.61
69464;DHT22;56665;41.106;16.688;2023-08-12T02:37:57;23.98;64.79
69464;DHT22;56665;41.106;16.688;2023-08-12T02:41:01;23.98;64.75
69464;DHT22;56665;41.106;16.688;2023-08-12T02:44:06;24.00;64.87
69464;DHT22;56665;41.106;16.688;2023-08-12T02:47:10;24.02;64.93
69464;DHT22;56665;41.106;16.688;2023-08-12T02:50:14;24.04;64.94
69464;DHT22;56665;41.106;16.688;2023-08-12T02:53:18;24.02;65.18
69464;DHT22;56665;41.106;16.688;2023-08-12T02:56:22;24.01;65.23
69464;DHT22;56665;41.106;16.688;2023-08-12T02:59:26;24.00;65.37
69464;DHT22;56665;41.106;16.688;2023-08-12T03:02:31;23.98;65.28
69464;DHT22;56665;41.106;16.688;2023-08-12T03:05:35;23.97;65.49
69464;DHT22;56665;41.106;16.688;2023-08-12T03:08:39;23.94;65.60
69464;DHT22;56665;41.106;16.688;2023-08-12T03:11:43;24.00;65.54
69464;DHT22;56665;41.106;16.688;2023-08-12T03:14:48;23.91;65.80
69464;DHT22;56665;41.106;16.688;2023-08-12T03:17:51;23.90;65.80
69464;DHT22;56665;41.106;16.688;2023-08-12T03:20:55;23.90;65.85
69464;DHT22;56665;41.106;16.688;2023-08-12T03:24:01;23.90;65.91
69464;DHT22;56665;41.106;16.688;2023-08-12T03:27:06;23.77;66.14
69464;DHT22;56665;41.106;16.688;2023-08-12T03:30:10;23.80;66.27
69464;DHT22;56665;41.106;16.688;2023-08-12T03:33:14;23.78;66.30
69464;DHT22;56665;41.106;16.688;2023-08-12T03:36:18;23.78;66.13
69464;DHT22;56665;41.106;16.688;2023-08-12T03:39:22;23.74;66.10
69464;DHT22;56665;41.106;16.688;2023-08-12T03:42:27;23.77;66.31
69464;DHT22;56665;41.106;16.688;2023-08-12T03:45:31;23.74;66.43
69464;DHT22;56665;41.106;16.688;2023-08-12T03:48:34;23.75;66.59
69464;DHT22;56665;41.106;16.688;2023-08-12T03:51:38;23.74;66.59
69464;DHT22;56665;41.106;16.688;2023-08-12T03:54:42;23.75;66.75
69464;DHT22;56665;41.106;16.688;2023-08-12T03:57:46;23.77;66.55
69464;DHT22;56665;41.106;16.688;2023-08-12T04:00:50;23.77;66.62
69464;DHT22;56665;41.106;16.688;2023-08-12T04:03:54;23.77;66.86
69464;DHT22;56665;41.106;16.688;2023-08-12T04:06:58;23.75;66.69
69464;DHT22;56665;41.106;16.688;2023-08-12T04:10:02;23.80;66.73
69464;DHT22;56665;41.106;16.688;2023-08-12T04:13:07;23.81;66.70
69464;DHT22;56665;41.106;16.688;2023-08-12T04:16:11;23.88;66.45
69464;DHT22;56665;41.106;16.688;2023-08-12T04:19:14;23.93;66.18
69464;DHT22;56665;41.106;16.688;2023-08-12T04:22:18;23.94;66.43
69464;DHT22;56665;41.106;16.688;2023-08-12T04:25:22;23.93;66.21
69464;DHT22;56665;41.106;16.688;2023-08-12T04:28:26;23.94;66.34
69464;DHT22;56665;41.106;16.688;2023-08-12T04:31:30;24.00;66.23
69464;DHT22;56665;41.106;16.688;2023-08-12T04:34:34;24.04;66.20
69464;DHT22;56665;41.106;16.688;2023-08-12T04:37:36;24.02;66.08
69464;DHT22;56665;41.106;16.688;2023-08-12T04:40:41;24.05;66.09
69464;DHT22;56665;41.106;16.688;2023-08-12T04:43:45;24.08;66.04
69464;DHT22;56665;41.106;16.688;2023-08-12T04:46:50;24.09;65.94
69464;DHT22;56665;41.106;16.688;2023-08-12T04:49:56;24.18;65.61
69464;DHT22;56665;41.106;16.688;2023-08-12T04:53:00;24.28;65.49
69464;DHT22;56665;41.106;16.688;2023-08-12T04:56:04;24.51;65.03
69464;DHT22;56665;41.106;16.688;2023-08-12T04:59:08;24.64;64.63
69464;DHT22;56665;41.106;16.688;2023-08-12T05:02:14;24.76;64.52
69464;DHT22;56665;41.106;16.688;2023-08-12T05:05:18;24.87;64.25
69464;DHT22;56665;41.106;16.688;2023-08-12T05:08:22;24.97;64.09
69464;DHT22;56665;41.106;16.688;2023-08-12T05:11:26;25.14;63.78
69464;DHT22;56665;41.106;16.688;2023-08-12T05:14:30;25.25;63.51
69464;DHT22;56665;41.106;16.688;2023-08-12T05:17:33;25.42;62.96
69464;DHT22;56665;41.106;16.688;2023-08-12T05:20:37;25.51;62.78
69464;DHT22;56665;41.106;16.688;2023-08-12T05:23:41;25.68;62.49
69464;DHT22;56665;41.106;16.688;2023-08-12T05:26:45;25.82;62.05
69464;DHT22;56665;41.106;16.688;2023-08-12T05:29:48;25.96;61.94
69464;DHT22;56665;41.106;16.688;2023-08-12T05:32:52;26.07;61.79
69464;DHT22;56665;41.106;16.688;2023-08-12T05:35:56;26.20;61.65
69464;DHT22;56665;41.106;16.688;2023-08-12T05:39:00;26.36;61.43
69464;DHT22;56665;41.106;16.688;2023-08-12T05:42:04;26.54;60.88
69464;DHT22;56665;41.106;16.688;2023-08-12T05:45:08;26.75;60.40
69464;DHT22;56665;41.106;16.688;2023-08-12T05:48:11;26.87;60.01
69464;DHT22;56665;41.106;16.688;2023-08-12T05:51:15;27.01;59.72
69464;DHT22;56665;41.106;16.688;2023-08-12T05:54:19;27.15;59.54
69464;DHT22;56665;41.106;16.688;2023-08-12T05:57:23;27.24;59.09
69464;DHT22;56665;41.106;16.688;2023-08-12T06:00:26;27.40;59.03
69464;DHT22;56665;41.106;16.688;2023-08-12T06:03:30;27.60;58.55
69464;DHT22;56665;41.106;16.688;2023-08-12T06:06:34;27.85;58.02
69464;DHT22;56665;41.106;16.688;2023-08-12T06:09:38;28.07;57.35
69464;DHT22;56665;41.106;16.688;2023-08-12T06:12:41;28.24;56.94
69464;DHT22;56665;41.106;16.688;2023-08-12T06:15:45;28.40;56.95
69464;DHT22;56665;41.106;16.688;2023-08-12T06:18:49;28.65;56.56
69464;DHT22;56665;41.106;16.688;2023-08-12T06:21:53;28.87;55.77
69464;DHT22;56665;41.106;16.688;2023-08-12T06:24:57;29.07;55.74
69464;DHT22;56665;41.106;16.688;2023-08-12T06:28:00;29.18;55.28
69464;DHT22;56665;41.106;16.688;2023-08-12T06:31:05;29.33;55.23
69464;DHT22;56665;41.106;16.688;2023-08-12T06:34:09;29.52;54.53
69464;DHT22;56665;41.106;16.688;2023-08-12T06:37:12;29.66;54.51
69464;DHT22;56665;41.106;16.688;2023-08-12T06:40:16;29.89;53.82
69464;DHT22;56665;41.106;16.688;2023-08-12T06:43:20;30.12;53.36
69464;DHT22;56665;41.106;16.688;2023-08-12T06:46:24;30.33;52.74
69464;DHT22;56665;41.106;16.688;2023-08-12T06:49:28;30.28;52.23
69464;DHT22;56665;41.106;16.688;2023-08-12T06:52:32;30.40;52.19
69464;DHT22;56665;41.106;16.688;2023-08-12T06:55:42;30.68;52.04
69464;DHT22;56665;41.106;16.688;2023-08-12T06:58:46;30.96;51.46
69464;DHT22;56665;41.106;16.688;2023-08-12T07:01:51;31.23;51.43
69464;DHT22;56665;41.106;16.688;2023-08-12T07:04:55;31.43;50.82
69464;DHT22;56665;41.106;16.688;2023-08-12T07:08:03;31.67;50.40
69464;DHT22;56665;41.106;16.688;2023-08-12T07:11:08;31.87;50.00
69464;DHT22;56665;41.106;16.688;2023-08-12T07:14:12;32.05;49.48
69464;DHT22;56665;41.106;16.688;2023-08-12T07:17:16;32.36;49.19
69464;DHT22;56665;41.106;16.688;2023-08-12T07:20:20;32.56;48.89
69464;DHT22;56665;41.106;16.688;2023-08-12T07:23:24;32.24;49.37
69464;DHT22;56665;41.106;16.688;2023-08-12T07:26:28;32.03;49.83
69464;DHT22;56665;41.106;16.688;2023-08-12T07:29:32;31.77;50.46
69464;DHT22;56665;41.106;16.688;2023-08-12T07:32:38;31.63;50.57
69464;DHT22;56665;41.106;16.688;2023-08-12T07:35:42;31.73;50.88
69464;DHT22;56665;41.106;16.688;2023-08-12T07:38:46;32.08;50.62
69464;DHT22;56665;41.106;16.688;2023-08-12T07:41:49;32.20;49.99
69464;DHT22;56665;41.106;16.688;2023-08-12T07:44:53;31.91;50.79
69464;DHT22;56665;41.106;16.688;2023-08-12T07:47:57;32.39;49.83
69464;DHT22;56665;41.106;16.688;2023-08-12T07:51:01;32.83;48.85
69464;DHT22;56665;41.106;16.688;2023-08-12T07:54:05;33.23;48.14
69464;DHT22;56665;41.106;16.688;2023-08-12T07:57:08;33.99;46.26
69464;DHT22;56665;41.106;16.688;2023-08-12T08:00:12;35.14;45.26
69464;DHT22;56665;41.106;16.688;2023-08-12T08:03:16;35.08;44.59
69464;DHT22;56665;41.106;16.688;2023-08-12T08:06:20;36.43;42.57
69464;DHT22;56665;41.106;16.688;2023-08-12T08:09:23;37.11;41.37
69464;DHT22;56665;41.106;16.688;2023-08-12T08:12:27;37.02;41.04
69464;DHT22;56665;41.106;16.688;2023-08-12T08:15:31;37.79;40.06
69464;DHT22;56665;41.106;16.688;2023-08-12T08:18:34;37.43;40.64
69464;DHT22;56665;41.106;16.688;2023-08-12T08:21:38;36.54;41.54
69464;DHT22;56665;41.106;16.688;2023-08-12T08:24:42;37.25;41.13
69464;DHT22;56665;41.106;16.688;2023-08-12T08:27:46;37.58;40.34
69464;DHT22;56665;41.106;16.688;2023-08-12T08:30:49;37.55;40.40
69464;DHT22;56665;41.106;16.688;2023-08-12T08:33:53;38.35;38.91
69464;DHT22;56665;41.106;16.688;2023-08-12T08:36:56;38.89;37.81
69464;DHT22;56665;41.106;16.688;2023-08-12T08:40:00;39.76;36.80
69464;DHT22;56665;41.106;16.688;2023-08-12T08:43:07;40.54;35.59
69464;DHT22;56665;41.106;16.688;2023-08-12T08:46:14;40.79;35.22
69464;DHT22;56665;41.106;16.688;2023-08-12T08:49:19;40.56;35.12
69464;DHT22;56665;41.106;16.688;2023-08-12T08:52:23;39.83;36.41
69464;DHT22;56665;41.106;16.688;2023-08-12T08:55:27;40.60;35.94
69464;DHT22;56665;41.106;16.688;2023-08-12T08:58:31;40.52;35.62
69464;DHT22;56665;41.106;16.688;2023-08-12T09:01:36;40.45;35.78
69464;DHT22;56665;41.106;16.688;2023-08-12T09:04:39;41.00;35.07
69464;DHT22;56665;41.106;16.688;2023-08-12T09:07:44;40.58;35.35
69464;DHT22;56665;41.106;16.688;2023-08-12T09:10:48;40.59;35.40
69464;DHT22;56665;41.106;16.688;2023-08-12T09:13:52;40.15;36.04
69464;DHT22;56665;41.106;16.688;2023-08-12T09:16:57;39.51;35.89
69464;DHT22;56665;41.106;16.688;2023-08-12T09:20:05;38.31;36.10
69464;DHT22;56665;41.106;16.688;2023-08-12T09:23:15;37.55;36.35
69464;DHT22;56665;41.106;16.688;2023-08-12T09:26:20;37.31;37.73
69464;DHT22;56665;41.106;16.688;2023-08-12T09:29:32;36.95;38.02
69464;DHT22;56665;41.106;16.688;2023-08-12T09:32:36;36.70;38.89
69464;DHT22;56665;41.106;16.688;2023-08-12T09:35:42;36.68;37.96
69464;DHT22;56665;41.106;16.688;2023-08-12T09:38:47;36.40;38.47
69464;DHT22;56665;41.106;16.688;2023-08-12T09:41:51;36.22;38.72
69464;DHT22;56665;41.106;16.688;2023-08-12T09:44:56;35.72;38.88
69464;DHT22;56665;41.106;16.688;2023-08-12T09:48:00;35.61;38.91
69464;DHT22;56665;41.106;16.688;2023-08-12T09:51:04;35.79;38.80
69464;DHT22;56665;41.106;16.688;2023-08-12T09:54:09;35.61;39.30
69464;DHT22;56665;41.106;16.688;2023-08-12T09:57:16;35.23;40.38
69464;DHT22;56665;41.106;16.688;2023-08-12T10:00:22;35.34;40.73
69464;DHT22;56665;41.106;16.688;2023-08-12T10:03:27;35.21;40.71
69464;DHT22;56665;41.106;16.688;2023-08-12T10:06:32;34.77;41.52
69464;DHT22;56665;41.106;16.688;2023-08-12T10:09:37;35.01;41.22
69464;DHT22;56665;41.106;16.688;2023-08-12T10:12:41;35.35;41.02
69464;DHT22;56665;41.106;16.688;2023-08-12T10:15:45;35.37;41.20
69464;DHT22;56665;41.106;16.688;2023-08-12T10:18:49;35.04;40.89
69464;DHT22;56665;41.106;16.688;2023-08-12T10:21:55;34.67;42.14
69464;DHT22;56665;41.106;16.688;2023-08-12T10:25:03;34.90;41.61
69464;DHT22;56665;41.106;16.688;2023-08-12T10:28:07;35.01;41.42
69464;DHT22;56665;41.106;16.688;2023-08-12T10:31:11;34.71;41.81
69464;DHT22;56665;41.106;16.688;2023-08-12T10:34:22;34.43;42.98
69464;DHT22;56665;41.106;16.688;2023-08-12T10:37:27;34.45;43.23
69464;DHT22;56665;41.106;16.688;2023-08-12T10:40:30;34.49;41.00
69464;DHT22;56665;41.106;16.688;2023-08-12T10:44:08;34.43;41.94
69464;DHT22;56665;41.106;16.688;2023-08-12T10:47:12;34.67;40.97
69464;DHT22;56665;41.106;16.688;2023-08-12T10:50:20;34.73;40.50
69464;DHT22;56665;41.106;16.688;2023-08-12T10:53:28;34.66;40.10
69464;DHT22;56665;41.106;16.688;2023-08-12T10:57:09;34.52;41.06
69464;DHT22;56665;41.106;16.688;2023-08-12T11:00:18;34.53;40.47
69464;DHT22;56665;41.106;16.688;2023-08-12T11:03:25;34.29;40.44
69464;DHT22;56665;41.106;16.688;2023-08-12T11:06:30;34.35;39.74
69464;DHT22;56665;41.106;16.688;2023-08-12T11:09:34;34.69;37.45
69464;DHT22;56665;41.106;16.688;2023-08-12T11:13:02;34.79;36.54
69464;DHT22;56665;41.106;16.688;2023-08-12T11:16:08;34.71;34.88
69464;DHT22;56665;41.106;16.688;2023-08-12T11:19:13;34.29;35.34
69464;DHT22;56665;41.106;16.688;2023-08-12T11:22:17;34.23;36.06
69464;DHT22;56665;41.106;16.688;2023-08-12T11:25:21;34.12;35.84
69464;DHT22;56665;41.106;16.688;2023-08-12T11:28:25;34.01;36.63
69464;DHT22;56665;41.106;16.688;2023-08-12T11:31:29;34.09;36.11
69464;DHT22;56665;41.106;16.688;2023-08-12T11:34:32;33.55;36.38
69464;DHT22;56665;41.106;16.688;2023-08-12T11:37:38;33.09;37.49
69464;DHT22;56665;41.106;16.688;2023-08-12T11:40:43;33.09;36.46
69464;DHT22;56665;41.106;16.688;2023-08-12T11:43:47;33.14;37.91
69464;DHT22;56665;41.106;16.688;2023-08-12T11:46:50;33.23;38.78
69464;DHT22;56665;41.106;16.688;2023-08-12T11:49:54;33.23;38.77
69464;DHT22;56665;41.106;16.688;2023-08-12T11:52:58;33.26;38.61
69464;DHT22;56665;41.106;16.688;2023-08-12T11:56:03;33.37;37.96
69464;DHT22;56665;41.106;16.688;2023-08-12T11:59:07;33.41;37.53
69464;DHT22;56665;41.106;16.688;2023-08-12T12:02:11;33.41;36.21
69464;DHT22;56665;41.106;16.688;2023-08-12T12:05:17;33.29;37.22
69464;DHT22;56665;41.106;16.688;2023-08-12T12:08:21;33.41;37.33
69464;DHT22;56665;41.106;16.688;2023-08-12T12:11:26;33.34;37.90
69464;DHT22;56665;41.106;16.688;2023-08-12T12:14:31;33.26;37.95
69464;DHT22;56665;41.106;16.688;2023-08-12T12:17:39;33.10;37.20
69464;DHT22;56665;41.106;16.688;2023-08-12T12:20:57;33.19;36.94
69464;DHT22;56665;41.106;16.688;2023-08-12T12:24:01;33.29;35.68
69464;DHT22;56665;41.106;16.688;2023-08-12T12:27:05;33.14;36.28
69464;DHT22;56665;41.106;16.688;2023-08-12T12:30:13;32.51;37.75
69464;DHT22;56665;41.106;16.688;2023-08-12T12:33:18;32.17;38.24
69464;DHT22;56665;41.106;16.688;2023-08-12T12:36:23;31.98;37.73
69464;DHT22;56665;41.106;16.688;2023-08-12T12:39:27;32.42;36.88
69464;DHT22;56665;41.106;16.688;2023-08-12T12:42:31;32.39;36.75
69464;DHT22;56665;41.106;16.688;2023-08-12T12:45:35;31.95;37.54
69464;DHT22;56665;41.106;16.688;2023-08-12T12:48:38;31.86;38.32
69464;DHT22;56665;41.106;16.688;2023-08-12T12:51:42;31.95;38.72
69464;DHT22;56665;41.106;16.688;2023-08-12T12:54:46;32.21;38.64
69464;DHT22;56665;41.106;16.688;2023-08-12T12:57:50;32.52;38.05
69464;DHT22;56665;41.106;16.688;2023-08-12T13:00:54;32.46;37.80
69464;DHT22;56665;41.106;16.688;2023-08-12T13:03:57;32.68;37.17
69464;DHT22;56665;41.106;16.688;2023-08-12T13:07:01;32.54;38.04
69464;DHT22;56665;41.106;16.688;2023-08-12T13:10:06;32.51;38.41
69464;DHT22;56665;41.106;16.688;2023-08-12T13:13:13;32.24;38.67
69464;DHT22;56665;41.106;16.688;2023-08-12T13:16:18;32.31;39.38
69464;DHT22;56665;41.106;16.688;2023-08-12T13:19:22;32.41;38.29
69464;DHT22;56665;41.106;16.688;2023-08-12T13:22:26;32.32;36.40
69464;DHT22;56665;41.106;16.688;2023-08-12T13:25:34;32.32;37.07
69464;DHT22;56665;41.106;16.688;2023-08-12T13:28:38;31.84;37.54
69464;DHT22;56665;41.106;16.688;2023-08-12T13:31:41;31.76;38.36
69464;DHT22;56665;41.106;16.688;2023-08-12T13:34:45;32.07;38.15
69464;DHT22;56665;41.106;16.688;2023-08-12T13:37:50;32.44;37.40
69464;DHT22;56665;41.106;16.688;2023-08-12T13:40:54;32.48;37.12
69464;DHT22;56665;41.106;16.688;2023-08-12T13:43:58;32.46;37.97
69464;DHT22;56665;41.106;16.688;2023-08-12T13:47:02;32.78;37.29
69464;DHT22;56665;41.106;16.688;2023-08-12T13:50:06;32.56;36.94
69464;DHT22;56665;41.106;16.688;2023-08-12T13:53:09;32.20;38.03
69464;DHT22;56665;41.106;16.688;2023-08-12T13:56:13;31.59;39.66
69464;DHT22;56665;41.106;16.688;2023-08-12T13:59:17;31.56;39.14
69464;DHT22;56665;41.106;16.688;2023-08-12T14:02:22;31.93;37.95
69464;DHT22;56665;41.106;16.688;2023-08-12T14:05:25;31.83;37.69
69464;DHT22;56665;41.106;16.688;2023-08-12T14:08:29;31.56;36.26
69464;DHT22;56665;41.106;16.688;2023-08-12T14:11:33;31.54;36.72
69464;DHT22;56665;41.106;16.688;2023-08-12T14:14:36;31.30;35.02
69464;DHT22;56665;41.106;16.688;2023-08-12T14:17:40;31.46;35.31
69464;DHT22;56665;41.106;16.688;2023-08-12T14:20:44;31.51;34.35
69464;DHT22;56665;41.106;16.688;2023-08-12T14:23:48;31.19;36.20
69464;DHT22;56665;41.106;16.688;2023-08-12T14:26:52;31.35;37.55
69464;DHT22;56665;41.106;16.688;2023-08-12T14:29:55;31.15;37.48
69464;DHT22;56665;41.106;16.688;2023-08-12T14:32:59;31.14;35.58
69464;DHT22;56665;41.106;16.688;2023-08-12T14:36:03;31.30;37.51
69464;DHT22;56665;41.106;16.688;2023-08-12T14:39:07;31.16;37.45
69464;DHT22;56665;41.106;16.688;2023-08-12T14:42:11;30.92;37.27
69464;DHT22;56665;41.106;16.688;2023-08-12T14:45:15;30.56;39.48
69464;DHT22;56665;41.106;16.688;2023-08-12T14:48:18;30.27;39.11
69464;DHT22;56665;41.106;16.688;2023-08-12T14:51:22;30.44;38.58
69464;DHT22;56665;41.106;16.688;2023-08-12T14:54:26;30.36;37.81
69464;DHT22;56665;41.106;16.688;2023-08-12T14:57:30;30.19;40.06
69464;DHT22;56665;41.106;16.688;2023-08-12T15:00:33;30.09;40.88
69464;DHT22;56665;41.106;16.688;2023-08-12T15:03:37;29.98;40.06
69464;DHT22;56665;41.106;16.688;2023-08-12T15:06:41;29.98;39.53
69464;DHT22;56665;41.106;16.688;2023-08-12T15:09:45;30.06;39.83
69464;DHT22;56665;41.106;16.688;2023-08-12T15:12:49;30.10;40.07
69464;DHT22;56665;41.106;16.688;2023-08-12T15:15:53;29.72;40.77
69464;DHT22;56665;41.106;16.688;2023-08-12T15:18:57;29.54;41.80
69464;DHT22;56665;41.106;16.688;2023-08-12T15:22:01;29.51;42.84
69464;DHT22;56665;41.106;16.688;2023-08-12T15:25:05;29.24;44.52
69464;DHT22;56665;41.106;16.688;2023-08-12T15:28:09;29.07;45.86
69464;DHT22;56665;41.106;16.688;2023-08-12T15:31:13;28.70;45.74
69464;DHT22;56665;41.106;16.688;2023-08-12T15:34:17;28.48;45.97
69464;DHT22;56665;41.106;16.688;2023-08-12T15:37:22;28.52;46.92
69464;DHT22;56665;41.106;16.688;2023-08-12T15:40:25;28.45;47.28
69464;DHT22;56665;41.106;16.688;2023-08-12T15:43:29;28.42;44.66
69464;DHT22;56665;41.106;16.688;2023-08-12T15:46:33;28.31;45.22
69464;DHT22;56665;41.106;16.688;2023-08-12T15:49:37;28.21;47.21
69464;DHT22;56665;41.106;16.688;2023-08-12T15:52:41;28.18;47.60
69464;DHT22;56665;41.106;16.688;2023-08-12T15:55:44;28.02;48.49
69464;DHT22;56665;41.106;16.688;2023-08-12T15:58:49;27.82;48.62
69464;DHT22;56665;41.106;16.688;2023-08-12T16:01:53;27.69;49.33
69464;DHT22;56665;41.106;16.688;2023-08-12T16:04:57;27.66;49.49
69464;DHT22;56665;41.106;16.688;2023-08-12T16:08:01;27.51;49.52
69464;DHT22;56665;41.106;16.688;2023-08-12T16:11:06;27.36;50.36
69464;DHT22;56665;41.106;16.688;2023-08-12T16:14:09;27.29;49.92
69464;DHT22;56665;41.106;16.688;2023-08-12T16:17:13;27.19;48.31
69464;DHT22;56665;41.106;16.688;2023-08-12T16:20:17;27.15;49.61
69464;DHT22;56665;41.106;16.688;2023-08-12T16:23:21;27.09;50.10
69464;DHT22;56665;41.106;16.688;2023-08-12T16:26:25;27.09;50.86
69464;DHT22;56665;41.106;16.688;2023-08-12T16:29:31;26.94;50.54
69464;DHT22;56665;41.106;16.688;2023-08-12T16:32:35;26.92;50.44
69464;DHT22;56665;41.106;16.688;2023-08-12T16:35:39;26.98;50.23
69464;DHT22;56665;41.106;16.688;2023-08-12T16:38:43;26.85;50.72
69464;DHT22;56665;41.106;16.688;2023-08-12T16:41:46;26.71;50.67
69464;DHT22;56665;41.106;16.688;2023-08-12T16:44:53;26.61;52.51
69464;DHT22;56665;41.106;16.688;2023-08-12T16:47:57;26.52;53.33
69464;DHT22;56665;41.106;16.688;2023-08-12T16:51:00;26.50;53.41
69464;DHT22;56665;41.106;16.688;2023-08-12T16:54:04;26.33;54.18
69464;DHT22;56665;41.106;16.688;2023-08-12T16:57:08;26.30;54.49
69464;DHT22;56665;41.106;16.688;2023-08-12T17:00:12;26.31;53.78
69464;DHT22;56665;41.106;16.688;2023-08-12T17:03:16;26.33;53.20
69464;DHT22;56665;41.106;16.688;2023-08-12T17:06:21;26.29;53.13
69464;DHT22;56665;41.106;16.688;2023-08-12T17:09:26;26.21;53.30
69464;DHT22;56665;41.106;16.688;2023-08-12T17:12:30;26.26;53.23
69464;DHT22;56665;41.106;16.688;2023-08-12T17:15:34;26.17;53.05
69464;DHT22;56665;41.106;16.688;2023-08-12T17:18:38;26.17;52.54
69464;DHT22;56665;41.106;16.688;2023-08-12T17:21:41;26.13;52.25
69464;DHT22;56665;41.106;16.688;2023-08-12T17:24:45;26.10;52.44
69464;DHT22;56665;41.106;16.688;2023-08-12T17:27:50;26.10;53.11
69464;DHT22;56665;41.106;16.688;2023-08-12T17:30:54;26.03;52.94
69464;DHT22;56665;41.106;16.688;2023-08-12T17:33:58;25.94;52.86
69464;DHT22;56665;41.106;16.688;2023-08-12T17:37:01;25.85;52.73
69464;DHT22;56665;41.106;16.688;2023-08-12T17:40:07;25.83;53.63
69464;DHT22;56665;41.106;16.688;2023-08-12T17:43:14;25.79;54.01
69464;DHT22;56665;41.106;16.688;2023-08-12T17:46:18;25.76;54.10
69464;DHT22;56665;41.106;16.688;2023-08-12T17:49:21;25.66;54.47
69464;DHT22;56665;41.106;16.688;2023-08-12T17:52:25;25.69;55.05
69464;DHT22;56665;41.106;16.688;2023-08-12T17:55:29;25.73;54.03
69464;DHT22;56665;41.106;16.688;2023-08-12T17:58:32;25.72;53.90
69464;DHT22;56665;41.106;16.688;2023-08-12T18:01:36;25.66;53.70
69464;DHT22;56665;41.106;16.688;2023-08-12T18:04:40;25.57;53.43
69464;DHT22;56665;41.106;16.688;2023-08-12T18:07:45;25.55;53.63
69464;DHT22;56665;41.106;16.688;2023-08-12T18:10:49;25.49;53.25
69464;DHT22;56665;41.106;16.688;2023-08-12T18:13:53;25.54;52.96
69464;DHT22;56665;41.106;16.688;2023-08-12T18:16:56;25.54;53.36
69464;DHT22;56665;41.106;16.688;2023-08-12T18:20:00;25.48;53.35
69464;DHT22;56665;41.106;16.688;2023-08-12T18:23:04;25.44;53.52
69464;DHT22;56665;41.106;16.688;2023-08-12T18:26:08;25.39;54.10
69464;DHT22;56665;41.106;16.688;2023-08-12T18:29:11;25.39;53.92
69464;DHT22;56665;41.106;16.688;2023-08-12T18:32:15;25.34;54.20
69464;DHT22;56665;41.106;16.688;2023-08-12T18:35:19;25.37;54.51
69464;DHT22;56665;41.106;16.688;2023-08-12T18:38:23;25.35;54.95
69464;DHT22;56665;41.106;16.688;2023-08-12T18:41:27;25.39;55.16
69464;DHT22;56665;41.106;16.688;2023-08-12T18:44:31;25.34;54.98
69464;DHT22;56665;41.106;16.688;2023-08-12T18:47:34;25.27;55.36
69464;DHT22;56665;41.106;16.688;2023-08-12T18:50:38;25.28;55.56
69464;DHT22;56665;41.106;16.688;2023-08-12T18:53:43;25.32;55.25
69464;DHT22;56665;41.106;16.688;2023-08-12T18:56:46;25.34;55.32
69464;DHT22;56665;41.106;16.688;2023-08-12T18:59:50;25.34;55.23
69464;DHT22;56665;41.106;16.688;2023-08-12T19:02:54;25.31;54.73
69464;DHT22;56665;41.106;16.688;2023-08-12T19:05:59;25.28;54.85
69464;DHT22;56665;41.106;16.688;2023-08-12T19:09:03;25.24;55.21